Time;durP1;ratioP1;P1;durP2;ratioP2;P2;SDS_P1;SDS_P2;PMS_P1;PMS_P2;Temp;Humidity;BMP_temperature;BMP_pressure;BME280_temperature;BME280_humidity;BME280_pressure;Samples;Min_cycle;Max_cycle;Signal;HPM_P1;HPM_P2
2021/12/16 00:09:26;;;;;;;8.73;1.92;;;;;;;;;;5016137;28;20099;-19
2021/12/16 00:31:20;;;;;;;7.28;2.15;;;;;;;;;;5016061;28;20037;-19
2021/12/16 00:33:58;;;;;;;10.05;2.22;;;;;;;;;;5015507;28;20040;-19
2021/12/16 00:36:24;;;;;;;9.10;2.20;;;;;;;;;;5015851;28;20032;-19
2021/12/16 00:38:51;;;;;;;7.18;1.70;;;;;;;;;;5015570;28;20099;-20
2021/12/16 00:41:17;;;;;;;5.40;1.50;;;;;;;;;;5015505;28;20097;-19
2021/12/16 00:43:48;;;;;;;6.47;1.60;;;;;;;;;;5015410;28;20264;-19
2021/12/16 00:46:31;;;;;;;7.10;1.58;;;;;;;;;;5015433;28;20127;-19
2021/12/16 00:54:28;;;;;;;6.60;1.35;;;;;;;;;;5015338;28;20506;-19
2021/12/16 00:57:00;;;;;;;6.10;1.80;;;;;;;;;;5015906;28;20045;-19
2021/12/16 00:59:32;;;;;;;7.85;1.45;;;;;;;;;;4997919;28;20030;-19
2021/12/16 01:08:01;;;;;;;8.60;1.70;;;;;;;;;;4974434;28;20090;-20
2021/12/16 01:54:41;;;;;;;6.00;1.65;;;;;;;;;;4998826;28;20037;-19
2021/12/16 01:57:29;;;;;;;5.25;1.42;;;;;;;;;;5014468;28;20399;-19
2021/12/16 02:00:01;;;;;;;8.80;1.65;;;;;;;;;;5014426;28;20034;-19
2021/12/16 02:02:40;;;;;;;6.55;1.05;;;;;;;;;;4997509;28;20473;-19
2021/12/16 02:08:17;;;;;;;5.57;1.33;;;;;;;;;;5014318;28;20045;-19
2021/12/16 02:10:45;;;;;;;7.95;1.67;;;;;;;;;;5014221;28;20465;-19
2021/12/16 02:13:34;;;;;;;4.85;1.42;;;;;;;;;;5014262;28;20030;-19
2021/12/16 02:30:33;;;;;;;4.53;1.13;;;;;;;;;;5014247;28;20084;-19
2021/12/16 02:32:56;;;;;;;4.53;1.50;;;;;;;;;;5013951;28;20037;-19
2021/12/16 02:37:52;;;;;;;5.10;1.30;;;;;;;;;;5014888;28;20046;-19
2021/12/16 02:40:20;;;;;;;9.87;2.03;;;;;;;;;;5014652;28;20460;-19
2021/12/16 02:43:24;;;;;;;3.47;1.10;;;;;;;;;;5014132;28;20041;-19
2021/12/16 02:48:29;;;;;;;5.15;1.30;;;;;;;;;;5014137;28;20048;-20
2021/12/16 02:50:56;;;;;;;3.55;1.15;;;;;;;;;;5014033;28;20030;-19
2021/12/16 02:53:23;;;;;;;3.70;1.33;;;;;;;;;;5013915;28;20033;-19
2021/12/16 02:55:49;;;;;;;4.73;1.23;;;;;;;;;;4998015;28;20483;-19
2021/12/16 02:58:16;;;;;;;5.23;1.73;;;;;;;;;;5017401;28;20026;-19
2021/12/16 03:00:42;;;;;;;;;;;;;;;;;;5018001;28;20575;-20
2021/12/16 03:03:09;;;;;;;5.97;1.80;;;;;;;;;;5017516;28;19909;-19
2021/12/16 03:05:35;;;;;;;6.90;1.67;;;;;;;;;;5017201;28;20181;-19
2021/12/16 03:08:02;;;;;;;5.35;1.52;;;;;;;;;;5017435;28;20045;-19
2021/12/16 03:11:37;;;;;;;8.93;1.97;;;;;;;;;;5017458;28;20421;-19
2021/12/16 03:13:38;;;;;;;4.93;1.23;;;;;;;;;;5008187;28;20284;-19
2021/12/16 03:18:48;;;;;;;12.93;2.22;;;;;;;;;;5017101;28;20041;-19
2021/12/16 03:21:20;;;;;;;5.63;1.33;;;;;;;;;;5017248;28;20044;-19
2021/12/16 03:29:09;;;;;;;3.38;1.38;;;;;;;;;;5016799;28;20172;-19
2021/12/16 03:37:15;;;;;;;5.70;1.17;;;;;;;;;;5016679;28;20037;-20
2021/12/16 03:39:47;;;;;;;5.30;1.00;;;;;;;;;;5016592;28;20029;-19
2021/12/16 03:42:16;;;;;;;3.90;1.15;;;;;;;;;;5016748;28;20529;-19
2021/12/16 03:44:53;;;;;;;6.20;1.50;;;;;;;;;;5016580;28;20033;-19
2021/12/16 03:47:22;;;;;;;3.40;1.30;;;;;;;;;;4999156;28;20365;-19
2021/12/16 03:49:49;;;;;;;5.25;1.58;;;;;;;;;;4999120;28;20420;-19
2021/12/16 03:52:16;;;;;;;3.63;0.82;;;;;;;;;;5016576;28;20057;-19
2021/12/16 03:54:49;;;;;;;3.55;1.08;;;;;;;;;;5016418;28;20080;-19
2021/12/16 03:57:16;;;;;;;7.18;1.55;;;;;;;;;;5016588;28;20037;-19
2021/12/16 03:59:42;;;;;;;3.10;1.05;;;;;;;;;;5016441;28;20483;-19
2021/12/16 04:02:12;;;;;;;6.68;1.30;;;;;;;;;;5016199;28;20046;-19
2021/12/16 04:04:39;;;;;;;4.55;1.33;;;;;;;;;;5015968;28;20061;-20
2021/12/16 04:07:06;;;;;;;4.75;1.15;;;;;;;;;;5015588;28;20042;-19
2021/12/16 04:09:34;;;;;;;4.00;1.20;;;;;;;;;;5016380;28;20029;-19
2021/12/16 04:12:09;;;;;;;5.63;1.40;;;;;;;;;;5015917;28;20079;-19
2021/12/16 04:14:37;;;;;;;3.10;1.10;;;;;;;;;;5016530;28;20026;-19
2021/12/16 04:17:03;;;;;;;7.38;1.25;;;;;;;;;;5016223;28;20033;-19
2021/12/16 04:19:32;;;;;;;4.35;1.02;;;;;;;;;;5015892;28;20105;-19
2021/12/16 04:22:06;;;;;;;4.10;1.15;;;;;;;;;;5015778;28;20457;-19
2021/12/16 04:24:33;;;;;;;4.65;1.50;;;;;;;;;;5016344;28;20025;-19
2021/12/16 04:27:00;;;;;;;3.47;1.20;;;;;;;;;;5015746;28;20064;-19
2021/12/16 04:29:26;;;;;;;5.15;0.98;;;;;;;;;;5015716;28;20360;-19
2021/12/16 04:31:54;;;;;;;2.97;1.02;;;;;;;;;;5015506;28;20033;-19
2021/12/16 04:34:21;;;;;;;5.30;1.58;;;;;;;;;;5015777;28;20026;-19
2021/12/16 04:36:48;;;;;;;3.83;1.13;;;;;;;;;;5015795;28;20026;-19
2021/12/16 04:39:17;;;;;;;9.85;1.92;;;;;;;;;;5015764;28;20413;-19
2021/12/16 04:41:44;;;;;;;5.32;1.92;;;;;;;;;;5015478;28;20420;-19
2021/12/16 04:44:11;;;;;;;6.60;1.10;;;;;;;;;;5015417;28;20087;-20
2021/12/16 04:46:38;;;;;;;4.47;1.15;;;;;;;;;;5015610;28;20477;-18
2021/12/16 04:49:05;;;;;;;3.50;0.90;;;;;;;;;;5015470;28;20029;-18
2021/12/16 04:51:33;;;;;;;5.00;1.08;;;;;;;;;;5015188;28;20052;-18
2021/12/16 04:54:00;;;;;;;5.82;1.38;;;;;;;;;;5015233;28;20368;-18
2021/12/16 04:56:27;;;;;;;3.13;0.82;;;;;;;;;;5015013;28;20361;-18
2021/12/16 04:58:54;;;;;;;3.10;1.15;;;;;;;;;;4997539;28;20115;-18
2021/12/16 05:03:56;;;;;;;7.18;1.77;;;;;;;;;;5077121;22;20464;-19
2021/12/16 05:06:24;;;;;;;8.95;1.38;;;;;;;;;;5015070;28;20080;-19
2021/12/16 05:08:50;;;;;;;4.60;1.10;;;;;;;;;;5015177;28;20095;-19
2021/12/16 05:11:17;;;;;;;6.97;1.30;;;;;;;;;;5015189;28;20352;-19
2021/12/16 05:13:45;;;;;;;7.50;1.48;;;;;;;;;;5014631;28;20104;-19
2021/12/16 05:16:12;;;;;;;4.93;1.13;;;;;;;;;;4997230;28;20026;-19
2021/12/16 05:18:39;;;;;;;4.38;1.42;;;;;;;;;;5014005;28;20072;-19
2021/12/16 05:21:09;;;;;;;4.43;1.70;;;;;;;;;;5014542;28;20026;-19
2021/12/16 05:26:21;;;;;;;6.10;1.23;;;;;;;;;;5014696;28;20435;-19
2021/12/16 05:28:52;;;;;;;5.68;1.20;;;;;;;;;;5014392;28;20025;-20
2021/12/16 05:31:21;;;;;;;6.68;1.00;;;;;;;;;;5014758;28;20037;-20
2021/12/16 05:33:51;;;;;;;7.63;1.10;;;;;;;;;;5014546;28;20057;-19
2021/12/16 05:36:17;;;;;;;6.72;1.42;;;;;;;;;;5014521;28;20026;-20
2021/12/16 05:38:44;;;;;;;5.28;1.63;;;;;;;;;;5014697;28;20038;-20
2021/12/16 05:41:13;;;;;;;9.73;1.08;;;;;;;;;;5014576;28;20049;-20
2021/12/16 05:43:40;;;;;;;9.25;1.85;;;;;;;;;;4997027;28;20033;-20
2021/12/16 05:46:08;;;;;;;8.60;1.35;;;;;;;;;;5014344;28;20408;-20
2021/12/16 05:48:37;;;;;;;8.55;1.67;;;;;;;;;;5014307;28;20425;-20
2021/12/16 05:51:08;;;;;;;6.57;1.27;;;;;;;;;;5014815;28;20036;-20
2021/12/16 05:53:35;;;;;;;6.95;1.13;;;;;;;;;;5014441;28;20113;-20
2021/12/16 05:56:01;;;;;;;5.20;1.30;;;;;;;;;;5014409;28;20038;-20
2021/12/16 05:58:28;;;;;;;6.78;0.90;;;;;;;;;;5014281;28;20034;-20
2021/12/16 06:00:59;;;;;;;5.47;1.30;;;;;;;;;;5014254;28;20068;-20
2021/12/16 06:03:27;;;;;;;3.63;1.23;;;;;;;;;;5014007;28;20230;-19
2021/12/16 06:05:53;;;;;;;5.22;1.05;;;;;;;;;;5014255;28;20037;-19
2021/12/16 06:08:20;;;;;;;9.27;1.42;;;;;;;;;;5013921;28;20453;-20
2021/12/16 06:13:40;;;;;;;8.45;1.10;;;;;;;;;;5013889;28;20050;-20
2021/12/16 06:27:16;;;;;;;9.35;2.97;;;;;;;;;;5014156;28;20113;-19
2021/12/16 06:29:47;;;;;;;8.40;1.45;;;;;;;;;;5015084;28;20038;-19
2021/12/16 06:32:14;;;;;;;8.02;1.55;;;;;;;;;;5017930;28;20022;-19
2021/12/16 06:34:41;;;;;;;9.70;1.13;;;;;;;;;;5017670;28;20030;-19
2021/12/16 06:37:08;;;;;;;11.05;2.45;;;;;;;;;;5017684;28;20514;-19
2021/12/16 06:39:35;;;;;;;7.07;1.63;;;;;;;;;;5017204;28;20025;-20
2021/12/16 06:42:05;;;;;;;6.13;1.27;;;;;;;;;;5017251;28;20042;-20
2021/12/16 06:44:40;;;;;;;5.30;1.48;;;;;;;;;;5018268;28;20403;-19
2021/12/16 06:47:12;;;;;;;8.77;1.20;;;;;;;;;;4999900;28;20084;-20
2021/12/16 06:49:42;;;;;;;6.70;1.30;;;;;;;;;;5017449;28;20052;-19
2021/12/16 06:52:12;;;;;;;7.15;1.60;;;;;;;;;;5017218;28;20029;-17
2021/12/16 06:55:00;;;;;;;10.25;2.15;;;;;;;;;;5017593;28;20087;-19
2021/12/16 07:00:12;;;;;;;10.63;1.75;;;;;;;;;;5017129;28;20068;-19
2021/12/16 07:02:57;;;;;;;14.13;2.20;;;;;;;;;;5017117;28;20098;-19
2021/12/16 07:05:28;;;;;;;13.90;2.00;;;;;;;;;;5017324;28;20029;-20
2021/12/16 07:07:55;;;;;;;15.43;1.75;;;;;;;;;;5016651;28;20468;-20
2021/12/16 07:10:22;;;;;;;15.40;2.15;;;;;;;;;;5016705;28;20403;-18
2021/12/16 07:12:50;;;;;;;11.32;1.70;;;;;;;;;;5016257;28;20453;-19
2021/12/16 07:15:36;;;;;;;12.05;2.63;;;;;;;;;;5016284;28;20041;-20
2021/12/16 07:18:03;;;;;;;9.13;1.90;;;;;;;;;;5016582;28;20475;-20
2021/12/16 07:20:33;;;;;;;7.22;2.00;;;;;;;;;;5016317;28;20041;-19
2021/12/16 07:23:01;;;;;;;10.02;1.65;;;;;;;;;;5016166;28;20158;-20
2021/12/16 07:25:29;;;;;;;8.90;2.13;;;;;;;;;;5015948;28;20104;-20
2021/12/16 07:27:56;;;;;;;9.57;1.45;;;;;;;;;;5016085;28;20021;-20
2021/12/16 07:30:25;;;;;;;12.82;2.15;;;;;;;;;;5016224;28;20033;-20
2021/12/16 07:32:54;;;;;;;9.23;1.65;;;;;;;;;;5016137;28;20033;-20
2021/12/16 07:35:24;;;;;;;7.07;1.85;;;;;;;;;;4998845;28;20512;-19
2021/12/16 07:37:50;;;;;;;7.88;1.60;;;;;;;;;;5015639;28;20049;-20
2021/12/16 07:40:18;;;;;;;8.25;1.52;;;;;;;;;;5016088;28;20053;-20
2021/12/16 07:42:59;;;;;;;8.90;1.75;;;;;;;;;;4998297;28;20030;-19
2021/12/16 07:45:26;;;;;;;8.60;1.63;;;;;;;;;;5015998;28;20111;-21
2021/12/16 07:47:52;;;;;;;10.93;1.90;;;;;;;;;;5016158;28;20034;-20
2021/12/16 07:50:22;;;;;;;9.18;1.58;;;;;;;;;;5016405;28;20034;-20
2021/12/16 07:52:50;;;;;;;7.63;1.85;;;;;;;;;;5016118;28;20042;-20
2021/12/16 07:55:18;;;;;;;12.52;1.90;;;;;;;;;;5015917;28;20113;-20
2021/12/16 07:57:46;;;;;;;12.85;2.58;;;;;;;;;;5015934;28;20105;-19
2021/12/16 08:00:17;;;;;;;12.60;1.92;;;;;;;;;;5015779;28;20034;-19
2021/12/16 08:02:43;;;;;;;9.38;2.00;;;;;;;;;;5015530;28;20050;-20
2021/12/16 08:05:10;;;;;;;13.30;2.30;;;;;;;;;;5015850;28;20022;-20
2021/12/16 08:07:39;;;;;;;9.10;1.77;;;;;;;;;;5016179;28;20036;-20
2021/12/16 08:10:10;;;;;;;21.45;2.28;;;;;;;;;;5015518;28;20120;-19
2021/12/16 08:12:37;;;;;;;14.90;2.13;;;;;;;;;;4997970;28;20026;-19
2021/12/16 08:15:04;;;;;;;17.58;2.88;;;;;;;;;;5016003;28;20030;-19
2021/12/16 08:17:32;;;;;;;12.10;2.58;;;;;;;;;;5015955;28;20026;-19
2021/12/16 08:19:59;;;;;;;10.75;1.65;;;;;;;;;;5015444;28;20029;-18
2021/12/16 08:22:26;;;;;;;10.43;2.10;;;;;;;;;;5015181;28;20033;-19
2021/12/16 08:24:53;;;;;;;11.23;2.15;;;;;;;;;;5015574;28;20474;-26
2021/12/16 08:27:20;;;;;;;13.80;2.85;;;;;;;;;;4998396;28;20038;-19
2021/12/16 08:29:47;;;;;;;10.45;2.33;;;;;;;;;;5015665;28;20033;-18
2021/12/16 08:32:14;;;;;;;15.93;2.08;;;;;;;;;;5015454;28;20048;-18
2021/12/16 08:34:43;;;;;;;9.38;2.03;;;;;;;;;;4998188;28;20025;-18
2021/12/16 08:37:10;;;;;;;12.32;1.92;;;;;;;;;;5014968;28;20080;-17
2021/12/16 08:39:38;;;;;;;24.55;2.75;;;;;;;;;;5015120;28;20049;-19
2021/12/16 08:42:06;;;;;;;12.07;2.17;;;;;;;;;;4997946;28;20430;-19
2021/12/16 08:44:33;;;;;;;10.45;2.10;;;;;;;;;;5015259;28;20331;-19
2021/12/16 08:47:01;;;;;;;15.25;2.72;;;;;;;;;;4997853;28;20029;-19
2021/12/16 08:49:30;;;;;;;15.50;2.40;;;;;;;;;;5014985;28;20029;-19
2021/12/16 08:52:04;;;;;;;13.30;2.00;;;;;;;;;;4997547;28;20032;-19
2021/12/16 08:54:34;;;;;;;9.30;2.25;;;;;;;;;;5014946;28;20029;-19
2021/12/16 08:57:01;;;;;;;7.60;1.58;;;;;;;;;;5015174;28;20026;-20
2021/12/16 08:59:29;;;;;;;12.45;2.05;;;;;;;;;;5014839;28;20038;-20
2021/12/16 09:01:57;;;;;;;10.77;1.88;;;;;;;;;;5015136;28;20053;-19
2021/12/16 09:04:25;;;;;;;10.77;1.92;;;;;;;;;;4997479;28;20054;-19
2021/12/16 09:06:57;;;;;;;16.52;2.97;;;;;;;;;;5015785;28;20030;-19
2021/12/16 09:09:24;;;;;;;10.55;2.35;;;;;;;;;;5014719;28;20369;-19
2021/12/16 09:12:04;;;;;;;10.13;2.05;;;;;;;;;;4997979;28;20060;-19
2021/12/16 09:14:32;;;;;;;15.48;2.63;;;;;;;;;;4982677;28;20124;-19
2021/12/16 09:16:59;;;;;;;9.32;2.55;;;;;;;;;;5014417;28;20022;-19
2021/12/16 09:19:26;;;;;;;18.65;2.53;;;;;;;;;;5014753;28;20200;-19
2021/12/16 09:21:52;;;;;;;21.67;2.50;;;;;;;;;;5014724;28;20045;-19
2021/12/16 09:24:19;;;;;;;10.30;1.58;;;;;;;;;;5014703;28;20025;-19
2021/12/16 09:26:47;;;;;;;12.40;2.10;;;;;;;;;;5014689;28;20029;-19
2021/12/16 09:29:14;;;;;;;10.20;2.33;;;;;;;;;;5014272;28;20061;-20
2021/12/16 09:31:40;;;;;;;12.80;2.53;;;;;;;;;;5014457;28;20034;-18
2021/12/16 09:34:08;;;;;;;13.80;2.37;;;;;;;;;;5014508;28;20064;-19
2021/12/16 09:36:37;;;;;;;13.07;2.80;;;;;;;;;;5014406;28;20309;-23
2021/12/16 09:39:05;;;;;;;18.15;2.75;;;;;;;;;;5014314;28;20464;-19
2021/12/16 09:41:32;;;;;;;16.58;2.67;;;;;;;;;;5014384;28;20168;-19
2021/12/16 09:44:00;;;;;;;14.30;2.70;;;;;;;;;;5013982;28;20029;-20
2021/12/16 09:46:29;;;;;;;9.73;2.00;;;;;;;;;;5014118;28;20100;-19
2021/12/16 09:48:56;;;;;;;16.63;2.30;;;;;;;;;;4997017;28;20393;-20
2021/12/16 09:51:25;;;;;;;7.88;2.03;;;;;;;;;;5014221;28;20124;-19
2021/12/16 09:53:54;;;;;;;11.63;2.38;;;;;;;;;;5013881;28;20103;-19
2021/12/16 09:56:23;;;;;;;14.85;2.58;;;;;;;;;;5013545;28;20022;-19
2021/12/16 09:58:53;;;;;;;17.38;2.30;;;;;;;;;;4996284;28;20420;-19
2021/12/16 10:01:23;;;;;;;12.20;2.28;;;;;;;;;;5013713;28;20146;-18
2021/12/16 10:03:51;;;;;;;9.88;2.50;;;;;;;;;;4992677;28;20126;-18
2021/12/16 10:06:18;;;;;;;11.95;2.47;;;;;;;;;;4997908;28;20105;-18
2021/12/16 10:08:44;;;;;;;;;;;;;;;;;;4998285;28;20089;-24
2021/12/16 10:11:12;;;;;;;11.98;2.10;;;;;;;;;;4998460;28;19964;-19
2021/12/16 10:14:20;;;;;;;17.63;2.42;;;;;;;;;;4997778;28;20022;-18
2021/12/16 10:19:21;;;;;;;11.30;2.53;;;;;;;;;;4997797;28;20105;-19
2021/12/16 10:21:48;;;;;;;10.85;2.17;;;;;;;;;;4997832;28;20441;-18
2021/12/16 10:24:26;;;;;;;12.13;2.37;;;;;;;;;;4997840;28;20034;-18
2021/12/16 10:27:07;;;;;;;8.90;2.00;;;;;;;;;;4997876;28;20116;-18
2021/12/16 10:29:38;;;;;;;7.43;1.90;;;;;;;;;;4997694;28;20029;-19
2021/12/16 10:32:07;;;;;;;9.73;1.90;;;;;;;;;;4997755;28;20311;-19
2021/12/16 10:34:33;;;;;;;10.55;1.83;;;;;;;;;;4997558;28;20030;-19
2021/12/16 10:40:25;;;;;;;14.15;3.05;;;;;;;;;;4997950;28;20034;-19
2021/12/16 10:42:53;;;;;;;16.95;2.83;;;;;;;;;;4996536;28;20034;-18
2021/12/16 10:45:30;;;;;;;15.43;3.42;;;;;;;;;;4997869;28;20027;-18
2021/12/16 10:48:07;;;;;;;16.83;2.78;;;;;;;;;;4997931;28;20061;-18
2021/12/16 10:50:52;;;;;;;13.10;3.30;;;;;;;;;;4997890;28;20026;-19
2021/12/16 10:53:40;;;;;;;16.40;2.15;;;;;;;;;;4997748;28;20485;-19
2021/12/16 10:56:07;;;;;;;11.23;2.05;;;;;;;;;;4958707;28;20057;-18
2021/12/16 10:58:51;;;;;;;24.88;4.43;;;;;;;;;;4997636;28;20054;-18
2021/12/16 11:01:38;;;;;;;23.20;3.50;;;;;;;;;;4997475;28;20373;-18
2021/12/16 11:04:08;;;;;;;15.40;2.63;;;;;;;;;;5012233;28;20054;-18
2021/12/16 11:06:40;;;;;;;14.43;2.72;;;;;;;;;;5017121;28;20022;-18
2021/12/16 11:09:24;;;;;;;14.85;3.40;;;;;;;;;;5017255;28;20034;-19
2021/12/16 11:12:11;;;;;;;21.02;3.47;;;;;;;;;;5016875;28;20026;-19
2021/12/16 11:14:39;;;;;;;10.95;2.65;;;;;;;;;;5016745;28;20036;-19
2021/12/16 11:17:08;;;;;;;14.75;2.63;;;;;;;;;;5015906;28;20045;-18
2021/12/16 11:20:08;;;;;;;15.55;2.88;;;;;;;;;;5017123;28;20029;-18
2021/12/16 11:22:37;;;;;;;15.32;2.75;;;;;;;;;;4964647;28;20069;-18
2021/12/16 11:25:23;;;;;;;10.98;2.40;;;;;;;;;;5017164;28;20034;-19
2021/12/16 11:27:56;;;;;;;23.75;3.03;;;;;;;;;;5017025;28;20492;-19
2021/12/16 11:30:28;;;;;;;15.60;3.05;;;;;;;;;;5016748;28;20033;-18
2021/12/16 11:33:03;;;;;;;18.55;3.53;;;;;;;;;;4999890;28;20032;-18
2021/12/16 11:35:35;;;;;;;11.75;2.70;;;;;;;;;;4999388;28;20066;-19
2021/12/16 11:38:09;;;;;;;12.88;2.53;;;;;;;;;;4983868;28;20053;-18
2021/12/16 11:40:53;;;;;;;15.32;3.03;;;;;;;;;;5016563;28;20044;-18
2021/12/16 11:43:32;;;;;;;24.30;3.75;;;;;;;;;;5016286;28;20037;-19
2021/12/16 11:46:00;;;;;;;19.17;3.15;;;;;;;;;;5016821;28;20360;-19
2021/12/16 11:48:35;;;;;;;12.05;2.28;;;;;;;;;;5016247;28;20030;-19
2021/12/16 11:51:10;;;;;;;17.48;2.03;;;;;;;;;;5016525;28;20022;-19
2021/12/16 11:53:43;;;;;;;16.85;3.17;;;;;;;;;;4998696;28;20080;-19
2021/12/16 11:56:11;;;;;;;15.82;2.70;;;;;;;;;;4998705;28;20133;-19
2021/12/16 11:58:40;;;;;;;25.05;4.78;;;;;;;;;;5016103;28;20025;-18
2021/12/16 12:01:18;;;;;;;17.13;2.58;;;;;;;;;;5016033;28;20029;-19
2021/12/16 12:03:47;;;;;;;11.18;2.65;;;;;;;;;;4994995;28;20062;-19
2021/12/16 12:06:24;;;;;;;25.75;3.03;;;;;;;;;;4996260;28;20465;-19
2021/12/16 12:08:53;;;;;;;18.00;3.17;;;;;;;;;;4996097;28;20039;-19
2021/12/16 12:11:21;;;;;;;14.60;3.45;;;;;;;;;;4995728;28;20026;-19
2021/12/16 12:14:00;;;;;;;15.23;2.72;;;;;;;;;;4995623;28;20073;-19
2021/12/16 12:16:43;;;;;;;11.50;2.40;;;;;;;;;;4996213;28;20450;-19
2021/12/16 12:19:32;;;;;;;9.68;3.03;;;;;;;;;;4994622;28;20022;-18
2021/12/16 12:22:03;;;;;;;10.35;2.85;;;;;;;;;;4995451;28;20038;-19
2021/12/16 12:24:36;;;;;;;8.07;2.70;;;;;;;;;;4995889;28;20132;-19
2021/12/16 12:27:14;;;;;;;15.40;5.15;;;;;;;;;;4995206;28;20038;-19
2021/12/16 12:29:52;;;;;;;13.07;4.93;;;;;;;;;;4995528;28;20461;-18
2021/12/16 12:32:21;;;;;;;13.18;5.95;;;;;;;;;;4995588;28;20075;-18
2021/12/16 12:34:56;;;;;;;15.30;6.10;;;;;;;;;;4995559;28;20026;-19
2021/12/16 12:37:25;;;;;;;14.20;5.68;;;;;;;;;;4995585;28;20022;-18
2021/12/16 12:39:57;;;;;;;17.27;5.82;;;;;;;;;;4995621;28;20054;-19
2021/12/16 12:42:25;;;;;;;14.27;5.07;;;;;;;;;;4995703;28;20400;-19
2021/12/16 12:44:53;;;;;;;17.73;7.43;;;;;;;;;;4995940;28;20034;-19
2021/12/16 12:47:22;;;;;;;14.20;4.55;;;;;;;;;;4995636;28;20459;-18
2021/12/16 12:49:48;;;;;;;25.27;6.97;;;;;;;;;;4995347;28;20026;-19
2021/12/16 12:52:18;;;;;;;28.27;7.13;;;;;;;;;;4994133;28;20031;-19
2021/12/16 12:54:47;;;;;;;15.70;3.65;;;;;;;;;;4995277;28;20038;-19
2021/12/16 12:57:19;;;;;;;28.00;7.90;;;;;;;;;;4995511;28;20113;-19
2021/12/16 12:59:47;;;;;;;16.70;4.70;;;;;;;;;;4995425;28;20375;-20
2021/12/16 13:02:20;;;;;;;21.98;5.78;;;;;;;;;;4995331;28;20030;-19
2021/12/16 13:04:50;;;;;;;16.83;6.47;;;;;;;;;;4995401;28;20044;-19
2021/12/16 13:07:16;;;;;;;25.02;5.80;;;;;;;;;;4994441;28;20483;-19
2021/12/16 13:09:46;;;;;;;20.30;4.85;;;;;;;;;;4994691;28;20034;-19
2021/12/16 13:12:34;;;;;;;16.92;5.25;;;;;;;;;;4995069;28;20030;-19
2021/12/16 13:15:09;;;;;;;19.65;4.35;;;;;;;;;;4995119;28;20499;-19
2021/12/16 13:23:32;;;;;;;13.13;3.50;;;;;;;;;;4995248;28;20133;-19
2021/12/16 13:29:16;;;;;;;16.92;4.13;;;;;;;;;;4994656;28;20113;-19
2021/12/16 13:31:51;;;;;;;9.75;2.75;;;;;;;;;;4994734;28;20034;-19
2021/12/16 13:34:28;;;;;;;13.98;4.07;;;;;;;;;;4994738;28;20022;-18
2021/12/16 13:36:58;;;;;;;10.77;3.42;;;;;;;;;;4994897;28;20018;-17
2021/12/16 13:39:28;;;;;;;29.67;4.25;;;;;;;;;;4993830;28;20213;-19
2021/12/16 13:42:01;;;;;;;24.13;5.28;;;;;;;;;;4993946;28;20069;-22
2021/12/16 13:44:38;;;;;;;20.35;4.38;;;;;;;;;;4994689;28;20030;-18
2021/12/16 13:47:32;;;;;;;;;;;;;;;;;;4995067;28;20067;-18
2021/12/16 13:59:38;;;;;;;12.65;4.13;;;;;;;;;;4994401;28;20114;-18
2021/12/16 14:01:53;;;;;;;16.38;4.60;;;;;;;;;;4993721;28;20038;-18
2021/12/16 14:10:06;;;;;;;8.80;3.10;;;;;;;;;;4994631;28;20030;-18
2021/12/16 14:15:18;;;;;;;13.10;2.88;;;;;;;;;;4994463;28;20354;-18
2021/12/16 14:18:08;;;;;;;10.32;2.17;;;;;;;;;;4993222;28;20058;-18
2021/12/16 14:23:56;;;;;;;8.48;1.95;;;;;;;;;;4994749;28;20045;-18
2021/12/16 14:26:52;;;;;;;11.73;3.40;;;;;;;;;;4993973;28;20082;-19
2021/12/16 14:35:00;;;;;;;14.88;2.92;;;;;;;;;;4994367;28;20473;-19
2021/12/16 14:37:34;;;;;;;22.05;3.65;;;;;;;;;;4993271;28;20034;-19
2021/12/16 14:40:28;;;;;;;11.70;2.63;;;;;;;;;;4994292;28;20104;-18
2021/12/16 14:43:16;;;;;;;18.52;3.97;;;;;;;;;;4994822;28;20310;-19
2021/12/16 14:45:46;;;;;;;11.80;2.88;;;;;;;;;;4994599;28;20027;-19
2021/12/16 14:50:43;;;;;;;25.95;3.50;;;;;;;;;;4995343;28;20137;-19
2021/12/16 14:53:15;;;;;;;14.77;2.55;;;;;;;;;;4997518;28;20156;-19
2021/12/16 14:55:43;;;;;;;13.85;3.95;;;;;;;;;;4997582;28;20026;-19
2021/12/16 14:58:09;;;;;;;12.82;2.75;;;;;;;;;;4996613;28;20026;-19
2021/12/16 15:00:40;;;;;;;11.80;3.27;;;;;;;;;;4997689;28;20037;-18
2021/12/16 15:03:12;;;;;;;14.93;3.05;;;;;;;;;;5003839;28;20136;-19
2021/12/16 15:05:51;;;;;;;15.38;4.10;;;;;;;;;;5017424;28;20030;-18
2021/12/16 15:08:28;;;;;;;10.75;2.88;;;;;;;;;;4999780;28;20119;-18
2021/12/16 15:10:59;;;;;;;13.25;3.28;;;;;;;;;;5017416;28;20030;-18
2021/12/16 15:13:55;;;;;;;9.88;2.90;;;;;;;;;;5016920;28;20054;-18
2021/12/16 15:36:35;;;;;;;18.60;2.83;;;;;;;;;;5016664;28;20034;-19
2021/12/16 15:44:34;;;;;;;22.70;3.92;;;;;;;;;;5016488;28;20111;-18
2021/12/16 15:47:01;;;;;;;8.70;3.08;;;;;;;;;;4999037;28;20491;-18
2021/12/16 15:49:29;;;;;;;12.07;2.88;;;;;;;;;;5016363;28;20034;-19
2021/12/16 15:51:56;;;;;;;19.00;3.05;;;;;;;;;;5016532;28;20156;-19
2021/12/16 15:54:22;;;;;;;;;;;;;;;;;;5016622;28;20093;-19
2021/12/16 15:56:54;;;;;;;18.65;3.67;;;;;;;;;;5016065;28;20225;-19
2021/12/16 15:59:28;;;;;;;19.38;3.03;;;;;;;;;;5016050;28;20045;-19
2021/12/16 16:01:58;;;;;;;15.18;2.65;;;;;;;;;;5015533;28;20038;-18
2021/12/16 16:04:28;;;;;;;13.95;2.90;;;;;;;;;;5015460;28;20100;-22
2021/12/16 16:07:01;;;;;;;10.93;2.60;;;;;;;;;;5016187;28;20037;-18
2021/12/16 16:09:31;;;;;;;12.05;2.90;;;;;;;;;;5016231;28;20026;-18
2021/12/16 16:11:58;;;;;;;11.80;2.42;;;;;;;;;;5015943;28;20088;-18
2021/12/16 16:14:32;;;;;;;10.35;2.42;;;;;;;;;;5015608;28;20048;-17
2021/12/16 16:17:00;;;;;;;16.85;2.67;;;;;;;;;;5015780;28;20121;-18
2021/12/16 16:19:29;;;;;;;8.27;2.42;;;;;;;;;;5015524;28;20042;-18
2021/12/16 16:21:57;;;;;;;11.48;3.25;;;;;;;;;;5015583;28;20079;-18
2021/12/16 16:24:33;;;;;;;11.45;3.03;;;;;;;;;;4998341;28;20034;-19
2021/12/16 16:27:01;;;;;;;16.10;2.40;;;;;;;;;;5015503;28;20058;-19
2021/12/16 16:29:30;;;;;;;11.68;2.90;;;;;;;;;;5015418;28;20451;-19
2021/12/16 16:31:57;;;;;;;11.13;2.65;;;;;;;;;;5015465;28;20053;-19
2021/12/16 16:34:25;;;;;;;11.55;3.00;;;;;;;;;;5015539;28;20088;-19
2021/12/16 16:36:53;;;;;;;8.10;2.05;;;;;;;;;;5015769;28;20026;-19
2021/12/16 16:39:23;;;;;;;8.30;2.72;;;;;;;;;;5015335;28;20034;-19
2021/12/16 16:41:52;;;;;;;7.95;1.92;;;;;;;;;;4997860;28;20424;-19
2021/12/16 16:44:21;;;;;;;15.18;2.83;;;;;;;;;;4997789;28;20103;-19
2021/12/16 16:46:57;;;;;;;7.88;2.33;;;;;;;;;;5015556;28;20025;-18
2021/12/16 16:49:29;;;;;;;12.88;2.40;;;;;;;;;;5015529;28;20044;-18
2021/12/16 16:51:58;;;;;;;13.02;2.47;;;;;;;;;;4997803;28;20033;-19
2021/12/16 16:54:30;;;;;;;15.13;2.53;;;;;;;;;;5015291;28;20369;-19
2021/12/16 16:56:57;;;;;;;12.10;2.25;;;;;;;;;;5015121;28;20022;-18
2021/12/16 16:59:34;;;;;;;16.63;2.50;;;;;;;;;;5015038;28;20029;-19
2021/12/16 17:02:03;;;;;;;10.00;2.30;;;;;;;;;;5014947;28;20128;-19
2021/12/16 17:04:32;;;;;;;14.68;2.53;;;;;;;;;;5014911;28;20465;-19
2021/12/16 17:07:00;;;;;;;21.15;2.97;;;;;;;;;;5014960;28;20026;-18
2021/12/16 17:09:35;;;;;;;9.93;1.90;;;;;;;;;;5014856;28;20117;-19
2021/12/16 17:12:05;;;;;;;10.43;2.00;;;;;;;;;;5015167;28;20046;-19
2021/12/16 17:14:38;;;;;;;10.63;1.98;;;;;;;;;;5013880;28;20485;-18
2021/12/16 17:17:24;;;;;;;8.25;2.35;;;;;;;;;;5014500;28;20476;-19
2021/12/16 17:20:11;;;;;;;8.82;2.10;;;;;;;;;;5014953;28;20358;-19
2021/12/16 17:22:46;;;;;;;15.80;2.70;;;;;;;;;;5014501;28;20034;-18
2021/12/16 17:25:37;;;;;;;13.57;2.60;;;;;;;;;;5014901;28;20021;-18
2021/12/16 17:28:04;;;;;;;16.52;2.28;;;;;;;;;;5014812;28;20026;-18
2021/12/16 17:30:32;;;;;;;16.33;3.35;;;;;;;;;;5014489;28;20030;-19
2021/12/16 17:32:59;;;;;;;12.77;2.50;;;;;;;;;;5014553;28;20039;-19
2021/12/16 17:35:27;;;;;;;6.63;2.33;;;;;;;;;;5014424;28;20445;-18
2021/12/16 17:38:00;;;;;;;11.40;2.78;;;;;;;;;;4997129;28;20026;-19
2021/12/16 17:40:26;;;;;;;6.88;1.90;;;;;;;;;;5014940;28;20381;-18
2021/12/16 17:42:55;;;;;;;13.00;2.45;;;;;;;;;;5014414;28;20022;-26
2021/12/16 17:45:27;;;;;;;12.43;2.92;;;;;;;;;;5014280;28;20034;-17
2021/12/16 17:47:54;;;;;;;14.25;2.47;;;;;;;;;;5014245;28;20085;-18
2021/12/16 17:50:23;;;;;;;7.50;2.13;;;;;;;;;;5014466;28;20029;-18
2021/12/16 17:52:52;;;;;;;16.88;3.25;;;;;;;;;;5014312;28;20026;-17
2021/12/16 17:55:21;;;;;;;14.48;2.75;;;;;;;;;;5014079;28;20036;-18
2021/12/16 17:57:49;;;;;;;10.15;2.45;;;;;;;;;;5014400;28;20030;-17
2021/12/16 18:00:24;;;;;;;11.82;2.35;;;;;;;;;;5013871;28;20464;-18
2021/12/16 18:02:50;;;;;;;8.63;1.80;;;;;;;;;;4996246;28;20049;-18
2021/12/16 18:05:18;;;;;;;9.35;2.70;;;;;;;;;;5014143;28;20026;-18
2021/12/16 18:07:45;;;;;;;10.55;2.83;;;;;;;;;;5013990;28;20026;-19
2021/12/16 18:10:12;;;;;;;10.35;2.80;;;;;;;;;;5013736;28;20563;-18
2021/12/16 18:12:39;;;;;;;;;;;;;;;;;;4996860;28;20030;-19
2021/12/16 18:15:06;;;;;;;;;;;;;;;;;;5014475;28;19906;-19
2021/12/16 18:17:46;;;;;;;10.82;2.55;;;;;;;;;;5013725;28;19909;-25
2021/12/16 18:20:15;;;;;;;11.98;2.70;;;;;;;;;;5013940;28;20029;-19
2021/12/16 18:22:43;;;;;;;9.10;2.85;;;;;;;;;;4996713;28;20030;-19
2021/12/16 18:25:09;;;;;;;9.18;2.78;;;;;;;;;;5014557;28;20111;-18
2021/12/16 18:27:39;;;;;;;14.97;3.07;;;;;;;;;;5017715;28;20107;-18
2021/12/16 18:30:18;;;;;;;9.27;2.72;;;;;;;;;;5017494;28;20014;-19
2021/12/16 18:32:46;;;;;;;9.02;2.63;;;;;;;;;;5017531;28;20026;-18